sensor_id;sensor_type;location;lat;lon;timestamp;temperature;humidity
37646;DHT22;23489;49.600;6.138;2024-02-26T00:02:17;5.60;99.90
37646;DHT22;23489;49.600;6.138;2024-02-26T00:04:43;5.60;99.90
37646;DHT22;23489;49.600;6.138;2024-02-26T00:07:09;5.50;99.90
37646;DHT22;23489;49.600;6.138;2024-02-26T00:09:34;5.50;99.90
37646;DHT22;23489;49.600;6.138;2024-02-26T00:12:02;5.50;99.90
37646;DHT22;23489;49.600;6.138;2024-02-26T00:14:30;5.40;99.90
37646;DHT22;23489;49.600;6.138;2024-02-26T00:16:55;5.40;99.90
37646;DHT22;23489;49.600;6.138;2024-02-26T00:19:21;5.40;99.90
37646;DHT22;23489;49.600;6.138;2024-02-26T00:21:47;5.30;99.90
37646;DHT22;23489;49.600;6.138;2024-02-26T00:24:12;5.30;99.90
37646;DHT22;23489;49.600;6.138;2024-02-26T00:26:38;5.30;99.90
37646;DHT22;23489;49.600;6.138;2024-02-26T00:29:04;5.30;99.90
37646;DHT22;23489;49.600;6.138;2024-02-26T00:31:29;5.30;99.90
37646;DHT22;23489;49.600;6.138;2024-02-26T00:33:55;5.20;99.90
37646;DHT22;23489;49.600;6.138;2024-02-26T00:36:21;5.20;99.90
37646;DHT22;23489;49.600;6.138;2024-02-26T00:38:47;5.20;99.90
37646;DHT22;23489;49.600;6.138;2024-02-26T00:41:22;5.20;99.90
37646;DHT22;23489;49.600;6.138;2024-02-26T00:43:48;5.20;99.90
37646;DHT22;23489;49.600;6.138;2024-02-26T00:46:14;5.20;99.90
37646;DHT22;23489;49.600;6.138;2024-02-26T00:48:40;5.20;99.90
37646;DHT22;23489;49.600;6.138;2024-02-26T00:51:05;5.20;99.90
37646;DHT22;23489;49.600;6.138;2024-02-26T00:53:31;5.20;99.90
37646;DHT22;23489;49.600;6.138;2024-02-26T00:55:57;5.20;99.90
37646;DHT22;23489;49.600;6.138;2024-02-26T00:58:25;5.10;99.90
37646;DHT22;23489;49.600;6.138;2024-02-26T01:00:51;5.10;99.90
37646;DHT22;23489;49.600;6.138;2024-02-26T01:03:17;5.10;99.90
37646;DHT22;23489;49.600;6.138;2024-02-26T01:05:43;5.10;99.90
37646;DHT22;23489;49.600;6.138;2024-02-26T01:08:09;5.10;99.90
37646;DHT22;23489;49.600;6.138;2024-02-26T01:10:34;5.10;99.90
37646;DHT22;23489;49.600;6.138;2024-02-26T01:13:01;5.10;99.90
37646;DHT22;23489;49.600;6.138;2024-02-26T01:15:26;5.10;99.90
37646;DHT22;23489;49.600;6.138;2024-02-26T01:17:53;5.10;99.90
37646;DHT22;23489;49.600;6.138;2024-02-26T01:20:18;5.10;99.90
37646;DHT22;23489;49.600;6.138;2024-02-26T01:22:44;5.10;99.90
37646;DHT22;23489;49.600;6.138;2024-02-26T01:25:10;5.10;99.90
37646;DHT22;23489;49.600;6.138;2024-02-26T01:27:37;5.10;99.90
37646;DHT22;23489;49.600;6.138;2024-02-26T01:30:06;5.00;99.90
37646;DHT22;23489;49.600;6.138;2024-02-26T01:32:32;5.00;99.90
37646;DHT22;23489;49.600;6.138;2024-02-26T01:34:58;5.00;99.90
37646;DHT22;23489;49.600;6.138;2024-02-26T01:37:23;4.90;99.90
37646;DHT22;23489;49.600;6.138;2024-02-26T01:39:49;4.90;99.90
37646;DHT22;23489;49.600;6.138;2024-02-26T01:42:15;4.90;99.90
37646;DHT22;23489;49.600;6.138;2024-02-26T01:44:40;4.90;99.90
37646;DHT22;23489;49.600;6.138;2024-02-26T01:47:09;4.90;99.90
37646;DHT22;23489;49.600;6.138;2024-02-26T01:49:36;4.90;99.90
37646;DHT22;23489;49.600;6.138;2024-02-26T01:52:03;4.90;99.90
37646;DHT22;23489;49.600;6.138;2024-02-26T01:54:30;4.80;99.90
37646;DHT22;23489;49.600;6.138;2024-02-26T01:56:56;4.80;99.90
37646;DHT22;23489;49.600;6.138;2024-02-26T01:59:23;4.80;99.90
37646;DHT22;23489;49.600;6.138;2024-02-26T02:01:57;4.80;99.90
37646;DHT22;23489;49.600;6.138;2024-02-26T02:04:24;4.80;99.90
37646;DHT22;23489;49.600;6.138;2024-02-26T02:06:50;4.80;99.90
37646;DHT22;23489;49.600;6.138;2024-02-26T02:09:15;4.80;99.90
37646;DHT22;23489;49.600;6.138;2024-02-26T02:11:41;4.80;99.90
37646;DHT22;23489;49.600;6.138;2024-02-26T02:14:07;4.80;99.90
37646;DHT22;23489;49.600;6.138;2024-02-26T02:16:33;4.80;99.90
37646;DHT22;23489;49.600;6.138;2024-02-26T02:18:59;4.80;99.90
37646;DHT22;23489;49.600;6.138;2024-02-26T02:21:25;4.80;99.90
37646;DHT22;23489;49.600;6.138;2024-02-26T02:23:50;4.80;99.90
37646;DHT22;23489;49.600;6.138;2024-02-26T02:26:16;4.80;99.90
37646;DHT22;23489;49.600;6.138;2024-02-26T02:28:43;4.90;99.90
37646;DHT22;23489;49.600;6.138;2024-02-26T02:31:09;4.90;99.90
37646;DHT22;23489;49.600;6.138;2024-02-26T02:33:35;4.90;99.90
37646;DHT22;23489;49.600;6.138;2024-02-26T02:36:01;4.90;99.90
37646;DHT22;23489;49.600;6.138;2024-02-26T02:38:26;4.90;99.90
37646;DHT22;23489;49.600;6.138;2024-02-26T02:40:55;4.90;99.90
37646;DHT22;23489;49.600;6.138;2024-02-26T02:43:20;4.90;99.90
37646;DHT22;23489;49.600;6.138;2024-02-26T02:45:46;4.90;99.90
37646;DHT22;23489;49.600;6.138;2024-02-26T02:48:12;4.90;99.90
37646;DHT22;23489;49.600;6.138;2024-02-26T02:50:38;4.90;99.90
37646;DHT22;23489;49.600;6.138;2024-02-26T02:53:04;5.00;99.90
37646;DHT22;23489;49.600;6.138;2024-02-26T02:55:29;5.00;99.90
37646;DHT22;23489;49.600;6.138;2024-02-26T02:57:55;5.00;99.90
37646;DHT22;23489;49.600;6.138;2024-02-26T03:00:21;5.10;99.90
37646;DHT22;23489;49.600;6.138;2024-02-26T03:02:50;5.10;99.90
37646;DHT22;23489;49.600;6.138;2024-02-26T03:05:15;5.10;99.90
37646;DHT22;23489;49.600;6.138;2024-02-26T03:07:41;5.20;99.90
37646;DHT22;23489;49.600;6.138;2024-02-26T03:10:07;5.20;99.90
37646;DHT22;23489;49.600;6.138;2024-02-26T03:12:34;5.20;99.90
37646;DHT22;23489;49.600;6.138;2024-02-26T03:15:00;5.20;99.90
37646;DHT22;23489;49.600;6.138;2024-02-26T03:17:30;5.30;99.90
37646;DHT22;23489;49.600;6.138;2024-02-26T03:19:56;5.30;99.90
37646;DHT22;23489;49.600;6.138;2024-02-26T03:22:22;5.30;99.90
37646;DHT22;23489;49.600;6.138;2024-02-26T03:24:48;5.40;99.90
37646;DHT22;23489;49.600;6.138;2024-02-26T03:27:13;5.30;99.90
37646;DHT22;23489;49.600;6.138;2024-02-26T03:29:40;5.40;99.90
37646;DHT22;23489;49.600;6.138;2024-02-26T03:32:06;5.40;99.90
37646;DHT22;23489;49.600;6.138;2024-02-26T03:34:32;5.40;99.90
37646;DHT22;23489;49.600;6.138;2024-02-26T03:37:01;5.40;99.90
37646;DHT22;23489;49.600;6.138;2024-02-26T03:39:27;5.40;99.90
37646;DHT22;23489;49.600;6.138;2024-02-26T03:41:52;5.50;99.90
37646;DHT22;23489;49.600;6.138;2024-02-26T03:44:18;5.50;99.90
37646;DHT22;23489;49.600;6.138;2024-02-26T03:46:44;5.50;99.90
37646;DHT22;23489;49.600;6.138;2024-02-26T03:49:10;5.50;99.90
37646;DHT22;23489;49.600;6.138;2024-02-26T03:51:35;5.50;99.90
37646;DHT22;23489;49.600;6.138;2024-02-26T03:54:01;5.50;99.90
37646;DHT22;23489;49.600;6.138;2024-02-26T03:56:27;5.60;99.90
37646;DHT22;23489;49.600;6.138;2024-02-26T03:58:53;5.60;99.90
37646;DHT22;23489;49.600;6.138;2024-02-26T04:01:19;5.60;99.90
37646;DHT22;23489;49.600;6.138;2024-02-26T04:03:45;5.60;99.90
37646;DHT22;23489;49.600;6.138;2024-02-26T04:06:11;5.60;99.90
37646;DHT22;23489;49.600;6.138;2024-02-26T04:08:37;5.60;99.90
37646;DHT22;23489;49.600;6.138;2024-02-26T04:11:03;5.60;99.90
37646;DHT22;23489;49.600;6.138;2024-02-26T04:13:33;5.70;99.90
37646;DHT22;23489;49.600;6.138;2024-02-26T04:15:59;5.70;99.90
37646;DHT22;23489;49.600;6.138;2024-02-26T04:18:27;5.70;99.90
37646;DHT22;23489;49.600;6.138;2024-02-26T04:20:52;5.70;99.90
37646;DHT22;23489;49.600;6.138;2024-02-26T04:23:18;5.80;99.90
37646;DHT22;23489;49.600;6.138;2024-02-26T04:25:44;5.70;99.90
37646;DHT22;23489;49.600;6.138;2024-02-26T04:28:10;5.70;99.90
37646;DHT22;23489;49.600;6.138;2024-02-26T04:30:36;5.70;99.90
37646;DHT22;23489;49.600;6.138;2024-02-26T04:33:02;5.70;99.90
37646;DHT22;23489;49.600;6.138;2024-02-26T04:35:28;5.70;99.90
37646;DHT22;23489;49.600;6.138;2024-02-26T04:37:54;5.70;99.90
37646;DHT22;23489;49.600;6.138;2024-02-26T04:40:20;5.70;99.90
37646;DHT22;23489;49.600;6.138;2024-02-26T04:42:45;5.70;99.90
37646;DHT22;23489;49.600;6.138;2024-02-26T04:45:11;5.80;99.90
37646;DHT22;23489;49.600;6.138;2024-02-26T04:47:37;5.80;99.90
37646;DHT22;23489;49.600;6.138;2024-02-26T04:50:02;5.80;99.90
37646;DHT22;23489;49.600;6.138;2024-02-26T04:52:28;5.80;99.90
37646;DHT22;23489;49.600;6.138;2024-02-26T04:54:54;5.90;99.90
37646;DHT22;23489;49.600;6.138;2024-02-26T04:57:21;5.90;99.90
37646;DHT22;23489;49.600;6.138;2024-02-26T04:59:46;5.90;99.90
37646;DHT22;23489;49.600;6.138;2024-02-26T05:02:12;5.90;99.90
37646;DHT22;23489;49.600;6.138;2024-02-26T05:04:38;5.90;99.90
37646;DHT22;23489;49.600;6.138;2024-02-26T05:07:04;5.90;99.90
37646;DHT22;23489;49.600;6.138;2024-02-26T05:09:31;5.90;99.90
37646;DHT22;23489;49.600;6.138;2024-02-26T05:11:57;5.90;99.90
37646;DHT22;23489;49.600;6.138;2024-02-26T05:14:22;5.90;99.90
37646;DHT22;23489;49.600;6.138;2024-02-26T05:16:48;5.90;99.90
37646;DHT22;23489;49.600;6.138;2024-02-26T05:19:14;5.90;99.90
37646;DHT22;23489;49.600;6.138;2024-02-26T05:21:39;5.90;99.90
37646;DHT22;23489;49.600;6.138;2024-02-26T05:24:06;5.80;99.90
37646;DHT22;23489;49.600;6.138;2024-02-26T05:26:31;5.80;99.90
37646;DHT22;23489;49.600;6.138;2024-02-26T05:28:57;5.80;99.90
37646;DHT22;23489;49.600;6.138;2024-02-26T05:31:25;5.90;99.90
37646;DHT22;23489;49.600;6.138;2024-02-26T05:33:52;5.90;99.90
37646;DHT22;23489;49.600;6.138;2024-02-26T05:36:18;5.90;99.90
37646;DHT22;23489;49.600;6.138;2024-02-26T05:38:45;5.90;99.90
37646;DHT22;23489;49.600;6.138;2024-02-26T05:41:12;5.90;99.90
37646;DHT22;23489;49.600;6.138;2024-02-26T05:43:37;5.90;99.90
37646;DHT22;23489;49.600;6.138;2024-02-26T05:46:03;5.80;99.90
37646;DHT22;23489;49.600;6.138;2024-02-26T05:48:29;5.80;99.90
37646;DHT22;23489;49.600;6.138;2024-02-26T05:50:54;5.80;99.90
37646;DHT22;23489;49.600;6.138;2024-02-26T05:53:20;5.80;99.90
37646;DHT22;23489;49.600;6.138;2024-02-26T05:55:46;5.80;99.90
37646;DHT22;23489;49.600;6.138;2024-02-26T05:58:12;5.80;99.90
37646;DHT22;23489;49.600;6.138;2024-02-26T06:00:37;5.80;99.90
37646;DHT22;23489;49.600;6.138;2024-02-26T06:03:03;5.80;99.90
37646;DHT22;23489;49.600;6.138;2024-02-26T06:05:29;5.80;99.90
37646;DHT22;23489;49.600;6.138;2024-02-26T06:07:54;5.70;99.90
37646;DHT22;23489;49.600;6.138;2024-02-26T06:10:20;5.80;99.90
37646;DHT22;23489;49.600;6.138;2024-02-26T06:12:47;5.80;99.90
37646;DHT22;23489;49.600;6.138;2024-02-26T06:15:13;5.80;99.90
37646;DHT22;23489;49.600;6.138;2024-02-26T06:17:38;5.80;99.90
37646;DHT22;23489;49.600;6.138;2024-02-26T06:20:05;5.80;99.90
37646;DHT22;23489;49.600;6.138;2024-02-26T06:22:32;5.80;99.90
37646;DHT22;23489;49.600;6.138;2024-02-26T06:24:58;5.90;99.90
37646;DHT22;23489;49.600;6.138;2024-02-26T06:27:23;5.90;99.90
37646;DHT22;23489;49.600;6.138;2024-02-26T06:29:49;5.90;99.90
37646;DHT22;23489;49.600;6.138;2024-02-26T06:32:15;5.90;99.90
37646;DHT22;23489;49.600;6.138;2024-02-26T06:34:41;5.90;99.90
37646;DHT22;23489;49.600;6.138;2024-02-26T06:37:08;5.90;99.90
37646;DHT22;23489;49.600;6.138;2024-02-26T06:39:34;5.90;99.90
37646;DHT22;23489;49.600;6.138;2024-02-26T06:41:59;5.90;99.90
37646;DHT22;23489;49.600;6.138;2024-02-26T06:44:27;5.90;99.90
37646;DHT22;23489;49.600;6.138;2024-02-26T06:46:58;5.90;99.90
37646;DHT22;23489;49.600;6.138;2024-02-26T06:49:25;6.00;99.90
37646;DHT22;23489;49.600;6.138;2024-02-26T06:51:50;6.00;99.90
37646;DHT22;23489;49.600;6.138;2024-02-26T06:54:16;6.00;99.90
37646;DHT22;23489;49.600;6.138;2024-02-26T06:56:42;6.00;99.90
37646;DHT22;23489;49.600;6.138;2024-02-26T06:59:07;6.00;99.90
37646;DHT22;23489;49.600;6.138;2024-02-26T07:01:33;6.00;99.90
37646;DHT22;23489;49.600;6.138;2024-02-26T07:03:59;6.00;99.90
37646;DHT22;23489;49.600;6.138;2024-02-26T07:06:25;6.00;99.90
37646;DHT22;23489;49.600;6.138;2024-02-26T07:08:50;6.00;99.90
37646;DHT22;23489;49.600;6.138;2024-02-26T07:11:16;6.10;99.90
37646;DHT22;23489;49.600;6.138;2024-02-26T07:13:42;6.00;99.90
37646;DHT22;23489;49.600;6.138;2024-02-26T07:16:09;6.10;99.90
37646;DHT22;23489;49.600;6.138;2024-02-26T07:18:35;6.10;99.90
37646;DHT22;23489;49.600;6.138;2024-02-26T07:21:02;6.10;99.90
37646;DHT22;23489;49.600;6.138;2024-02-26T07:23:28;6.10;99.90
37646;DHT22;23489;49.600;6.138;2024-02-26T07:25:54;6.10;99.90
37646;DHT22;23489;49.600;6.138;2024-02-26T07:28:20;6.10;99.90
37646;DHT22;23489;49.600;6.138;2024-02-26T07:30:46;6.10;99.90
37646;DHT22;23489;49.600;6.138;2024-02-26T07:33:12;6.20;99.90
37646;DHT22;23489;49.600;6.138;2024-02-26T07:35:37;6.20;99.90
37646;DHT22;23489;49.600;6.138;2024-02-26T07:38:04;6.20;99.90
37646;DHT22;23489;49.600;6.138;2024-02-26T07:40:30;6.20;99.90
37646;DHT22;23489;49.600;6.138;2024-02-26T07:42:56;6.20;99.90
37646;DHT22;23489;49.600;6.138;2024-02-26T07:45:22;6.30;99.90
37646;DHT22;23489;49.600;6.138;2024-02-26T07:47:48;6.30;99.90
37646;DHT22;23489;49.600;6.138;2024-02-26T07:50:14;6.30;99.90
37646;DHT22;23489;49.600;6.138;2024-02-26T07:52:40;6.30;99.90
37646;DHT22;23489;49.600;6.138;2024-02-26T07:55:06;6.30;99.90
37646;DHT22;23489;49.600;6.138;2024-02-26T07:57:32;6.30;99.90
37646;DHT22;23489;49.600;6.138;2024-02-26T07:59:59;6.30;99.90
37646;DHT22;23489;49.600;6.138;2024-02-26T08:02:25;6.30;99.90
37646;DHT22;23489;49.600;6.138;2024-02-26T08:04:51;6.30;99.90
37646;DHT22;23489;49.600;6.138;2024-02-26T08:07:16;6.30;99.90
37646;DHT22;23489;49.600;6.138;2024-02-26T08:09:42;6.30;99.90
37646;DHT22;23489;49.600;6.138;2024-02-26T08:12:08;6.30;99.90
37646;DHT22;23489;49.600;6.138;2024-02-26T08:14:34;6.30;99.90
37646;DHT22;23489;49.600;6.138;2024-02-26T08:16:59;6.30;99.90
37646;DHT22;23489;49.600;6.138;2024-02-26T08:19:25;6.30;99.90
37646;DHT22;23489;49.600;6.138;2024-02-26T08:21:51;6.40;99.90
37646;DHT22;23489;49.600;6.138;2024-02-26T08:24:17;6.40;99.90
37646;DHT22;23489;49.600;6.138;2024-02-26T08:26:43;6.40;99.90
37646;DHT22;23489;49.600;6.138;2024-02-26T08:29:08;6.40;99.90
37646;DHT22;23489;49.600;6.138;2024-02-26T08:31:34;6.40;99.90
37646;DHT22;23489;49.600;6.138;2024-02-26T08:34:03;6.40;99.90
37646;DHT22;23489;49.600;6.138;2024-02-26T08:36:30;6.40;99.90
37646;DHT22;23489;49.600;6.138;2024-02-26T08:38:57;6.50;99.90
37646;DHT22;23489;49.600;6.138;2024-02-26T08:41:22;6.50;99.90
37646;DHT22;23489;49.600;6.138;2024-02-26T08:43:48;6.60;99.90
37646;DHT22;23489;49.600;6.138;2024-02-26T08:46:14;6.50;99.90
37646;DHT22;23489;49.600;6.138;2024-02-26T08:48:40;6.50;99.90
37646;DHT22;23489;49.600;6.138;2024-02-26T08:51:06;6.50;99.90
37646;DHT22;23489;49.600;6.138;2024-02-26T08:53:33;6.50;99.90
37646;DHT22;23489;49.600;6.138;2024-02-26T08:55:58;6.60;99.90
37646;DHT22;23489;49.600;6.138;2024-02-26T08:58:24;6.60;99.90
37646;DHT22;23489;49.600;6.138;2024-02-26T09:00:50;6.60;99.90
37646;DHT22;23489;49.600;6.138;2024-02-26T09:03:16;6.70;99.90
37646;DHT22;23489;49.600;6.138;2024-02-26T09:05:42;6.70;99.90
37646;DHT22;23489;49.600;6.138;2024-02-26T09:08:08;6.80;99.90
37646;DHT22;23489;49.600;6.138;2024-02-26T09:10:34;6.90;99.90
37646;DHT22;23489;49.600;6.138;2024-02-26T09:12:59;7.00;99.90
37646;DHT22;23489;49.600;6.138;2024-02-26T09:15:25;7.00;99.90
37646;DHT22;23489;49.600;6.138;2024-02-26T09:17:51;7.00;99.90
37646;DHT22;23489;49.600;6.138;2024-02-26T09:20:17;7.10;99.90
37646;DHT22;23489;49.600;6.138;2024-02-26T09:22:47;7.10;99.90
37646;DHT22;23489;49.600;6.138;2024-02-26T09:25:12;7.40;99.90
37646;DHT22;23489;49.600;6.138;2024-02-26T09:27:38;7.50;99.90
37646;DHT22;23489;49.600;6.138;2024-02-26T09:30:04;7.70;99.90
37646;DHT22;23489;49.600;6.138;2024-02-26T09:32:30;7.80;99.90
37646;DHT22;23489;49.600;6.138;2024-02-26T09:34:55;7.80;99.90
37646;DHT22;23489;49.600;6.138;2024-02-26T09:37:21;7.80;99.90
37646;DHT22;23489;49.600;6.138;2024-02-26T09:39:46;7.80;99.90
37646;DHT22;23489;49.600;6.138;2024-02-26T09:42:12;8.00;99.90
37646;DHT22;23489;49.600;6.138;2024-02-26T09:44:39;8.20;99.90
37646;DHT22;23489;49.600;6.138;2024-02-26T09:47:05;8.40;99.90
37646;DHT22;23489;49.600;6.138;2024-02-26T09:49:32;8.40;99.90
37646;DHT22;23489;49.600;6.138;2024-02-26T09:51:58;8.40;99.90
37646;DHT22;23489;49.600;6.138;2024-02-26T09:54:24;8.40;99.90
37646;DHT22;23489;49.600;6.138;2024-02-26T09:56:51;8.50;99.90
37646;DHT22;23489;49.600;6.138;2024-02-26T09:59:19;8.60;99.90
37646;DHT22;23489;49.600;6.138;2024-02-26T10:01:45;8.50;99.90
37646;DHT22;23489;49.600;6.138;2024-02-26T10:04:12;8.50;99.90
37646;DHT22;23489;49.600;6.138;2024-02-26T10:06:37;8.50;99.90
37646;DHT22;23489;49.600;6.138;2024-02-26T10:09:03;8.50;99.90
37646;DHT22;23489;49.600;6.138;2024-02-26T10:11:32;8.80;99.90
37646;DHT22;23489;49.600;6.138;2024-02-26T10:13:58;9.20;99.90
37646;DHT22;23489;49.600;6.138;2024-02-26T10:16:24;9.40;99.90
37646;DHT22;23489;49.600;6.138;2024-02-26T10:18:51;9.70;99.90
37646;DHT22;23489;49.600;6.138;2024-02-26T10:21:17;9.90;99.90
37646;DHT22;23489;49.600;6.138;2024-02-26T10:23:45;10.00;99.90
37646;DHT22;23489;49.600;6.138;2024-02-26T10:26:13;10.00;99.90
37646;DHT22;23489;49.600;6.138;2024-02-26T10:28:42;9.90;99.90
37646;DHT22;23489;49.600;6.138;2024-02-26T10:31:08;9.90;99.90
37646;DHT22;23489;49.600;6.138;2024-02-26T10:33:34;9.90;99.90
37646;DHT22;23489;49.600;6.138;2024-02-26T10:36:03;9.90;99.90
37646;DHT22;23489;49.600;6.138;2024-02-26T10:38:29;9.80;99.90
37646;DHT22;23489;49.600;6.138;2024-02-26T10:40:55;9.90;99.90
37646;DHT22;23489;49.600;6.138;2024-02-26T10:43:21;10.00;99.90
37646;DHT22;23489;49.600;6.138;2024-02-26T10:45:46;10.30;99.90
37646;DHT22;23489;49.600;6.138;2024-02-26T10:48:13;10.40;99.90
37646;DHT22;23489;49.600;6.138;2024-02-26T10:50:39;10.40;99.90
37646;DHT22;23489;49.600;6.138;2024-02-26T10:53:07;10.30;99.90
37646;DHT22;23489;49.600;6.138;2024-02-26T10:55:36;10.30;99.90
37646;DHT22;23489;49.600;6.138;2024-02-26T10:58:02;10.00;99.90
37646;DHT22;23489;49.600;6.138;2024-02-26T11:00:28;9.90;99.90
37646;DHT22;23489;49.600;6.138;2024-02-26T11:02:55;9.70;99.90
37646;DHT22;23489;49.600;6.138;2024-02-26T11:05:21;9.50;99.90
37646;DHT22;23489;49.600;6.138;2024-02-26T11:07:47;9.40;99.90
37646;DHT22;23489;49.600;6.138;2024-02-26T11:10:13;9.50;99.90
37646;DHT22;23489;49.600;6.138;2024-02-26T11:12:40;9.40;99.90
37646;DHT22;23489;49.600;6.138;2024-02-26T11:15:06;9.40;99.90
37646;DHT22;23489;49.600;6.138;2024-02-26T11:17:33;9.30;99.90
37646;DHT22;23489;49.600;6.138;2024-02-26T11:20:00;9.30;99.90
37646;DHT22;23489;49.600;6.138;2024-02-26T11:22:27;9.40;99.90
37646;DHT22;23489;49.600;6.138;2024-02-26T11:24:54;9.50;99.90
37646;DHT22;23489;49.600;6.138;2024-02-26T11:27:24;9.60;99.90
37646;DHT22;23489;49.600;6.138;2024-02-26T11:29:52;9.40;99.90
37646;DHT22;23489;49.600;6.138;2024-02-26T11:32:19;9.30;99.90
37646;DHT22;23489;49.600;6.138;2024-02-26T11:34:45;9.20;99.90
37646;DHT22;23489;49.600;6.138;2024-02-26T11:37:12;9.20;99.90
37646;DHT22;23489;49.600;6.138;2024-02-26T11:39:41;9.30;99.90
37646;DHT22;23489;49.600;6.138;2024-02-26T11:42:08;9.50;99.90
37646;DHT22;23489;49.600;6.138;2024-02-26T11:44:34;9.70;99.90
37646;DHT22;23489;49.600;6.138;2024-02-26T11:47:09;9.80;99.90
37646;DHT22;23489;49.600;6.138;2024-02-26T11:49:34;9.90;99.90
37646;DHT22;23489;49.600;6.138;2024-02-26T11:52:06;9.90;99.90
37646;DHT22;23489;49.600;6.138;2024-02-26T11:57:21;9.90;99.90
37646;DHT22;23489;49.600;6.138;2024-02-26T11:59:47;9.80;99.90
37646;DHT22;23489;49.600;6.138;2024-02-26T12:05:10;10.00;99.90
37646;DHT22;23489;49.600;6.138;2024-02-26T12:07:40;10.20;99.90
37646;DHT22;23489;49.600;6.138;2024-02-26T12:13:11;10.40;99.90
37646;DHT22;23489;49.600;6.138;2024-02-26T12:15:43;10.50;99.90
37646;DHT22;23489;49.600;6.138;2024-02-26T12:18:12;10.50;99.90
37646;DHT22;23489;49.600;6.138;2024-02-26T12:20:41;10.60;99.90
37646;DHT22;23489;49.600;6.138;2024-02-26T12:23:06;10.80;99.90
37646;DHT22;23489;49.600;6.138;2024-02-26T12:25:33;10.90;99.90
37646;DHT22;23489;49.600;6.138;2024-02-26T12:27:59;11.00;99.90
37646;DHT22;23489;49.600;6.138;2024-02-26T12:30:25;11.10;99.90
37646;DHT22;23489;49.600;6.138;2024-02-26T12:32:53;11.10;99.90
37646;DHT22;23489;49.600;6.138;2024-02-26T12:35:26;11.00;99.90
37646;DHT22;23489;49.600;6.138;2024-02-26T12:37:55;10.90;99.90
37646;DHT22;23489;49.600;6.138;2024-02-26T12:40:21;10.70;99.90
37646;DHT22;23489;49.600;6.138;2024-02-26T12:42:47;10.70;99.90
37646;DHT22;23489;49.600;6.138;2024-02-26T12:45:13;10.70;99.90
37646;DHT22;23489;49.600;6.138;2024-02-26T12:47:42;10.60;99.90
37646;DHT22;23489;49.600;6.138;2024-02-26T12:50:09;10.60;99.90
37646;DHT22;23489;49.600;6.138;2024-02-26T12:52:41;10.70;99.90
37646;DHT22;23489;49.600;6.138;2024-02-26T12:55:08;10.80;99.90
37646;DHT22;23489;49.600;6.138;2024-02-26T12:57:37;10.80;99.90
37646;DHT22;23489;49.600;6.138;2024-02-26T13:00:06;10.90;99.90
37646;DHT22;23489;49.600;6.138;2024-02-26T13:02:36;10.90;99.90
37646;DHT22;23489;49.600;6.138;2024-02-26T13:05:03;10.80;99.90
37646;DHT22;23489;49.600;6.138;2024-02-26T13:07:29;10.70;99.90
37646;DHT22;23489;49.600;6.138;2024-02-26T13:09:55;10.60;99.90
37646;DHT22;23489;49.600;6.138;2024-02-26T13:12:21;10.50;99.90
37646;DHT22;23489;49.600;6.138;2024-02-26T13:14:47;10.40;99.90
37646;DHT22;23489;49.600;6.138;2024-02-26T13:17:13;10.50;99.90
37646;DHT22;23489;49.600;6.138;2024-02-26T13:19:49;10.70;99.90
37646;DHT22;23489;49.600;6.138;2024-02-26T13:22:15;11.00;99.90
37646;DHT22;23489;49.600;6.138;2024-02-26T13:24:40;11.20;99.90
37646;DHT22;23489;49.600;6.138;2024-02-26T13:27:07;11.30;99.90
37646;DHT22;23489;49.600;6.138;2024-02-26T13:29:32;11.30;99.90
37646;DHT22;23489;49.600;6.138;2024-02-26T13:31:59;11.40;99.90
37646;DHT22;23489;49.600;6.138;2024-02-26T13:34:25;11.60;99.90
37646;DHT22;23489;49.600;6.138;2024-02-26T13:36:53;11.50;99.90
37646;DHT22;23489;49.600;6.138;2024-02-26T13:39:26;11.30;99.90
37646;DHT22;23489;49.600;6.138;2024-02-26T13:41:53;11.20;99.90
37646;DHT22;23489;49.600;6.138;2024-02-26T13:44:20;11.10;99.90
37646;DHT22;23489;49.600;6.138;2024-02-26T13:46:47;11.10;99.90
37646;DHT22;23489;49.600;6.138;2024-02-26T13:49:13;11.00;99.90
37646;DHT22;23489;49.600;6.138;2024-02-26T13:51:39;11.10;99.90
37646;DHT22;23489;49.600;6.138;2024-02-26T13:54:05;11.00;99.90
37646;DHT22;23489;49.600;6.138;2024-02-26T13:56:31;11.00;99.90
37646;DHT22;23489;49.600;6.138;2024-02-26T13:58:58;10.90;99.90
37646;DHT22;23489;49.600;6.138;2024-02-26T14:01:24;10.90;99.90
37646;DHT22;23489;49.600;6.138;2024-02-26T14:03:50;10.90;99.90
37646;DHT22;23489;49.600;6.138;2024-02-26T14:06:16;10.80;99.90
37646;DHT22;23489;49.600;6.138;2024-02-26T14:08:42;10.80;99.90
37646;DHT22;23489;49.600;6.138;2024-02-26T14:11:08;10.70;99.90
37646;DHT22;23489;49.600;6.138;2024-02-26T14:13:34;10.60;99.90
37646;DHT22;23489;49.600;6.138;2024-02-26T14:15:59;10.70;99.90
37646;DHT22;23489;49.600;6.138;2024-02-26T14:18:25;10.60;99.90
37646;DHT22;23489;49.600;6.138;2024-02-26T14:20:52;10.50;99.90
37646;DHT22;23489;49.600;6.138;2024-02-26T14:23:18;10.50;99.90
37646;DHT22;23489;49.600;6.138;2024-02-26T14:25:43;10.40;99.90
37646;DHT22;23489;49.600;6.138;2024-02-26T14:28:09;10.40;99.90
37646;DHT22;23489;49.600;6.138;2024-02-26T14:30:35;10.30;99.90
37646;DHT22;23489;49.600;6.138;2024-02-26T14:33:00;10.30;99.90
37646;DHT22;23489;49.600;6.138;2024-02-26T14:35:26;10.30;99.90
37646;DHT22;23489;49.600;6.138;2024-02-26T14:37:52;10.30;99.90
37646;DHT22;23489;49.600;6.138;2024-02-26T14:40:17;10.30;99.90
37646;DHT22;23489;49.600;6.138;2024-02-26T14:42:44;10.30;99.90
37646;DHT22;23489;49.600;6.138;2024-02-26T14:45:10;10.30;99.90
37646;DHT22;23489;49.600;6.138;2024-02-26T14:47:37;10.30;99.90
37646;DHT22;23489;49.600;6.138;2024-02-26T14:50:03;10.30;99.90
37646;DHT22;23489;49.600;6.138;2024-02-26T14:52:29;10.30;99.90
37646;DHT22;23489;49.600;6.138;2024-02-26T14:54:55;10.30;99.90
37646;DHT22;23489;49.600;6.138;2024-02-26T14:57:20;10.30;99.90
37646;DHT22;23489;49.600;6.138;2024-02-26T14:59:46;10.30;99.90
37646;DHT22;23489;49.600;6.138;2024-02-26T15:02:13;10.20;99.90
37646;DHT22;23489;49.600;6.138;2024-02-26T15:04:39;10.20;99.90
37646;DHT22;23489;49.600;6.138;2024-02-26T15:07:05;10.10;99.90
37646;DHT22;23489;49.600;6.138;2024-02-26T15:09:31;9.90;99.90
37646;DHT22;23489;49.600;6.138;2024-02-26T15:11:56;9.70;99.90
37646;DHT22;23489;49.600;6.138;2024-02-26T15:14:25;9.60;99.90
37646;DHT22;23489;49.600;6.138;2024-02-26T15:16:52;9.50;99.90
37646;DHT22;23489;49.600;6.138;2024-02-26T15:19:18;9.40;99.90
37646;DHT22;23489;49.600;6.138;2024-02-26T15:21:45;9.40;99.90
37646;DHT22;23489;49.600;6.138;2024-02-26T15:24:11;9.40;99.90
37646;DHT22;23489;49.600;6.138;2024-02-26T15:26:37;9.40;99.90
37646;DHT22;23489;49.600;6.138;2024-02-26T15:29:03;9.40;99.90
37646;DHT22;23489;49.600;6.138;2024-02-26T15:31:29;9.40;99.90
37646;DHT22;23489;49.600;6.138;2024-02-26T15:33:56;9.40;99.90
37646;DHT22;23489;49.600;6.138;2024-02-26T15:36:22;9.30;99.90
37646;DHT22;23489;49.600;6.138;2024-02-26T15:38:47;9.30;99.90
37646;DHT22;23489;49.600;6.138;2024-02-26T15:41:13;9.30;99.90
37646;DHT22;23489;49.600;6.138;2024-02-26T15:43:39;9.30;99.90
37646;DHT22;23489;49.600;6.138;2024-02-26T15:46:05;9.20;99.90